createdAt,value
2023-03-16T00:02:03.758Z,21.30
2023-03-16T00:07:10.676Z,19.80
2023-03-16T00:12:17.621Z,24.60
2023-03-16T00:17:21.535Z,21.70
2023-03-16T00:22:29.144Z,21.50
2023-03-16T00:27:32.127Z,22.20
2023-03-16T00:32:37.995Z,21.80
2023-03-16T00:37:43.003Z,23.00
2023-03-16T00:42:46.139Z,22.80
2023-03-16T00:47:49.415Z,30.30
2023-03-16T00:52:53.763Z,29.10
2023-03-16T00:57:56.706Z,31.60
2023-03-16T01:02:59.589Z,27.50
2023-03-16T01:08:04.363Z,28.30
2023-03-16T01:13:07.636Z,27.90
2023-03-16T01:18:10.558Z,25.30
2023-03-16T01:23:13.497Z,27.30
2023-03-16T01:28:16.343Z,25.90
2023-03-16T01:33:19.212Z,26.90
2023-03-16T01:38:22.835Z,24.20
2023-03-16T01:43:29.233Z,22.80
2023-03-16T01:48:49.861Z,19.70
2023-03-16T01:54:18.115Z,19.00
2023-03-16T01:59:25.103Z,19.60
2023-03-16T02:04:52.140Z,17.90
2023-03-16T02:10:00.244Z,16.30
2023-03-16T02:15:04.365Z,17.50
2023-03-16T02:20:54.913Z,18.20
2023-03-16T02:26:14.390Z,11.70
2023-03-16T02:31:18.616Z,14.50
2023-03-16T02:36:21.867Z,15.40
2023-03-16T02:41:24.854Z,16.40
2023-03-16T02:46:29.338Z,17.80
2023-03-16T02:51:32.508Z,16.50
2023-03-16T02:56:35.498Z,17.90
2023-03-16T03:01:38.427Z,19.40
2023-03-16T03:06:41.925Z,18.80
2023-03-16T03:11:46.845Z,17.30
2023-03-16T03:16:49.812Z,17.50
2023-03-16T03:21:56.836Z,16.30
2023-03-16T03:27:06.266Z,16.20
2023-03-16T03:32:09.330Z,17.90
2023-03-16T03:37:12.214Z,15.00
2023-03-16T03:42:15.106Z,15.60
2023-03-16T03:47:20.764Z,13.30
2023-03-16T03:52:23.809Z,14.90
2023-03-16T03:57:26.775Z,13.70
2023-03-16T04:02:29.888Z,12.00
2023-03-16T04:07:33.087Z,9.00
2023-03-16T04:12:36.031Z,10.70
2023-03-16T04:17:39.145Z,7.80
2023-03-16T04:22:43.260Z,13.30
2023-03-16T04:27:46.962Z,13.30
2023-03-16T04:32:51.060Z,12.60
2023-03-16T04:37:54.133Z,13.00
2023-03-16T04:42:57.311Z,13.30
2023-03-16T04:48:00.514Z,12.60
2023-03-16T04:53:04.713Z,12.40
2023-03-16T04:58:07.694Z,16.50
2023-03-16T05:03:10.746Z,12.80
2023-03-16T05:08:13.893Z,13.10
2023-03-16T05:13:16.800Z,12.80
2023-03-16T05:18:21.933Z,13.50
2023-03-16T05:23:27.048Z,12.40
2023-03-16T05:28:30.315Z,20.10
2023-03-16T05:33:33.336Z,17.30
2023-03-16T05:38:36.918Z,20.60
2023-03-16T05:43:39.790Z,18.90
2023-03-16T05:48:42.711Z,18.80
2023-03-16T05:53:46.893Z,23.30
2023-03-16T05:58:55.366Z,30.50
2023-03-16T06:03:58.368Z,33.40
2023-03-16T06:09:02.631Z,39.10
2023-03-16T06:14:05.577Z,36.10
2023-03-16T06:19:08.545Z,30.70
2023-03-16T06:24:11.375Z,27.40
2023-03-16T06:29:14.260Z,38.80
2023-03-16T06:34:17.150Z,40.60
2023-03-16T06:39:20.226Z,40.20
2023-03-16T06:44:23.442Z,40.80
2023-03-16T06:49:26.802Z,40.90
2023-03-16T06:54:32.434Z,41.60
2023-03-16T06:59:35.424Z,40.70
2023-03-16T07:04:38.476Z,42.10
2023-03-16T07:09:42.234Z,40.40
2023-03-16T07:14:45.769Z,47.90
2023-03-16T07:19:49.631Z,47.40
2023-03-16T07:24:57.283Z,43.70
2023-03-16T07:30:00.535Z,49.60
2023-03-16T07:35:03.605Z,49.00
2023-03-16T07:40:09.392Z,51.70
2023-03-16T07:45:13.405Z,49.80
2023-03-16T07:50:19.307Z,51.00
2023-03-16T07:55:22.471Z,56.20
2023-03-16T08:00:25.410Z,58.40
2023-03-16T08:05:28.881Z,104.50
2023-03-16T08:10:32.648Z,98.90
2023-03-16T08:15:35.832Z,71.30
2023-03-16T08:20:38.807Z,63.60
2023-03-16T08:25:42.308Z,64.90
2023-03-16T08:30:48.224Z,65.40
2023-03-16T08:35:51.672Z,65.20
2023-03-16T08:40:54.789Z,49.20
2023-03-16T08:45:57.633Z,56.40
2023-03-16T08:51:06.000Z,51.80
2023-03-16T08:56:12.493Z,52.60
2023-03-16T09:01:19.302Z,54.80
2023-03-16T09:06:22.565Z,51.30
2023-03-16T09:11:28.878Z,55.90
2023-03-16T09:16:32.035Z,64.70
2023-03-16T09:21:36.264Z,50.70
2023-03-16T09:26:40.072Z,49.80
2023-03-16T09:31:43.374Z,46.50
2023-03-16T09:36:46.478Z,50.00
2023-03-16T09:42:14.046Z,47.20
2023-03-16T09:47:19.174Z,40.70
2023-03-16T09:52:55.516Z,44.30
2023-03-16T09:58:01.343Z,47.70
2023-03-16T10:03:25.409Z,47.10
2023-03-16T10:08:45.234Z,49.20
2023-03-16T10:13:56.605Z,45.50
2023-03-16T10:19:16.242Z,42.50
2023-03-16T10:24:45.931Z,44.10
2023-03-16T10:29:49.336Z,47.70
2023-03-16T10:35:22.380Z,45.70
2023-03-16T10:40:26.381Z,45.30
2023-03-16T10:45:32.464Z,45.00
2023-03-16T10:50:36.340Z,43.50
2023-03-16T10:55:45.027Z,38.10
2023-03-16T11:00:48.052Z,38.00
2023-03-16T11:06:00.813Z,38.20
2023-03-16T11:11:17.006Z,22.80
2023-03-16T11:16:46.798Z,26.80
2023-03-16T11:22:15.169Z,25.50
2023-03-16T11:27:40.860Z,23.90
2023-03-16T11:32:51.248Z,31.80
2023-03-16T11:38:00.310Z,28.10
2023-03-16T11:43:38.512Z,23.10
2023-03-16T11:49:25.893Z,26.00
2023-03-16T11:55:16.817Z,25.90
2023-03-16T12:00:45.064Z,21.20
2023-03-16T12:06:24.408Z,27.30
2023-03-16T12:11:40.891Z,25.50
2023-03-16T12:17:03.150Z,28.70
2023-03-16T12:22:23.886Z,27.30
2023-03-16T12:27:36.795Z,26.40
2023-03-16T12:32:53.580Z,27.70
2023-03-16T12:38:30.222Z,22.30
2023-03-16T12:43:44.704Z,22.30
2023-03-16T12:48:54.530Z,23.90
2023-03-16T12:53:59.794Z,25.90
2023-03-16T12:59:08.516Z,24.80
2023-03-16T13:04:19.514Z,25.50
2023-03-16T13:09:31.877Z,21.80
2023-03-16T13:14:40.481Z,20.80
2023-03-16T13:20:18.235Z,21.80
2023-03-16T13:25:30.938Z,33.70
2023-03-16T13:30:35.371Z,54.70
2023-03-16T13:35:39.682Z,36.10
2023-03-16T13:40:49.800Z,29.30
2023-03-16T13:45:52.668Z,27.30
2023-03-16T13:50:58.874Z,28.40
2023-03-16T13:56:04.436Z,27.60
2023-03-16T14:01:35.642Z,25.50
2023-03-16T14:06:39.695Z,109.30
2023-03-16T14:11:44.712Z,41.70
2023-03-16T14:16:47.657Z,28.20
2023-03-16T14:21:51.958Z,24.00
2023-03-16T14:26:55.012Z,43.90
2023-03-16T14:32:00.276Z,28.40
2023-03-16T14:37:11.876Z,21.80
2023-03-16T14:42:28.834Z,17.60
2023-03-16T14:47:43.567Z,22.00
2023-03-16T14:52:47.658Z,11.00
2023-03-16T14:57:54.058Z,12.20
2023-03-16T15:03:08.735Z,9.90
2023-03-16T15:08:26.349Z,9.00
2023-03-16T15:13:39.695Z,8.50
2023-03-16T15:18:43.119Z,10.20
2023-03-16T15:23:47.128Z,9.90
2023-03-16T15:28:50.288Z,16.80
2023-03-16T15:33:53.426Z,76.30
2023-03-16T15:38:56.959Z,29.80
2023-03-16T15:44:01.583Z,31.20
2023-03-16T15:49:04.790Z,5.80
2023-03-16T15:54:09.761Z,20.90
2023-03-16T15:59:19.082Z,14.10
2023-03-16T16:04:24.337Z,33.00
2023-03-16T16:09:27.731Z,18.20
2023-03-16T16:14:30.654Z,14.00
2023-03-16T16:19:34.329Z,13.80
2023-03-16T16:24:38.062Z,21.90
2023-03-16T16:29:41.145Z,23.40
2023-03-16T16:34:49.780Z,23.50
2023-03-16T16:39:57.925Z,23.30
2023-03-16T16:45:01.664Z,21.40
2023-03-16T16:50:16.904Z,23.30
2023-03-16T16:55:22.512Z,36.90
2023-03-16T17:00:26.520Z,33.60
2023-03-16T17:05:30.150Z,24.50
2023-03-16T17:10:33.363Z,25.80
2023-03-16T17:15:37.098Z,45.10
2023-03-16T17:20:40.978Z,29.10
2023-03-16T17:25:44.758Z,30.30
2023-03-16T17:30:48.962Z,31.90
2023-03-16T17:35:52.432Z,35.20
2023-03-16T17:40:56.037Z,31.50
2023-03-16T17:46:02.430Z,37.40
2023-03-16T17:51:05.667Z,38.90
2023-03-16T17:56:26.036Z,46.40
2023-03-16T18:01:35.529Z,36.60
2023-03-16T18:06:41.522Z,22.90
2023-03-16T18:11:48.173Z,23.20
2023-03-16T18:16:52.396Z,17.20
2023-03-16T18:21:55.432Z,21.60
2023-03-16T18:26:58.434Z,14.30
2023-03-16T18:32:01.544Z,11.40
2023-03-16T18:37:06.319Z,20.80
2023-03-16T18:42:20.187Z,22.10
2023-03-16T18:47:24.618Z,19.50
2023-03-16T18:52:31.012Z,22.00
2023-03-16T18:57:33.964Z,20.80
2023-03-16T19:02:39.676Z,23.20
2023-03-16T19:07:49.611Z,24.50
2023-03-16T19:12:53.278Z,24.20
2023-03-16T19:17:57.362Z,18.30
2023-03-16T19:23:12.224Z,34.50
2023-03-16T19:28:28.211Z,20.70
2023-03-16T19:33:31.680Z,22.80
2023-03-16T19:38:34.620Z,30.00
2023-03-16T19:43:37.472Z,27.70
2023-03-16T19:48:43.002Z,47.40
2023-03-16T19:53:46.516Z,26.80
2023-03-16T19:58:53.640Z,17.60
2023-03-16T20:03:56.726Z,20.40
2023-03-16T20:08:59.648Z,21.80
2023-03-16T20:14:03.770Z,34.30
2023-03-16T20:19:15.478Z,40.20
2023-03-16T20:24:24.102Z,64.70
2023-03-16T20:29:32.717Z,18.80
2023-03-16T20:34:36.087Z,25.70
2023-03-16T20:39:38.999Z,13.60
2023-03-16T20:44:42.303Z,9.60
2023-03-16T20:49:45.233Z,11.80
2023-03-16T20:54:51.958Z,11.70
2023-03-16T20:59:55.642Z,40.20
2023-03-16T21:05:01.744Z,49.70
2023-03-16T21:10:05.099Z,62.80
2023-03-16T21:15:19.493Z,39.90
2023-03-16T21:20:23.499Z,34.00
2023-03-16T21:25:32.748Z,35.90
2023-03-16T21:30:42.883Z,33.20
2023-03-16T21:35:46.348Z,22.40
2023-03-16T21:40:49.526Z,29.70
2023-03-16T21:45:54.021Z,19.10
2023-03-16T21:50:57.287Z,40.10
2023-03-16T21:56:00.521Z,27.30
2023-03-16T22:01:04.446Z,61.90
2023-03-16T22:06:12.546Z,45.30
2023-03-16T22:11:23.211Z,42.80
2023-03-16T22:16:31.521Z,34.00
2023-03-16T22:21:37.816Z,37.40
2023-03-16T22:26:41.488Z,40.80
2023-03-16T22:31:47.061Z,66.50
2023-03-16T22:36:50.249Z,61.30
2023-03-16T22:41:53.252Z,68.30
2023-03-16T22:46:56.167Z,70.70
2023-03-16T22:51:59.088Z,66.10
2023-03-16T22:57:02.476Z,52.80
2023-03-16T23:02:06.700Z,39.50
2023-03-16T23:07:17.128Z,33.20
2023-03-16T23:12:21.627Z,30.30
2023-03-16T23:17:24.562Z,32.60
2023-03-16T23:22:27.445Z,56.30
2023-03-16T23:27:30.337Z,62.10
2023-03-16T23:32:33.276Z,51.90
2023-03-16T23:37:36.186Z,54.30
2023-03-16T23:42:42.204Z,49.90
2023-03-16T23:47:48.747Z,33.10
2023-03-16T23:52:52.245Z,32.00
2023-03-16T23:57:55.843Z,31.60
